Terminal Aerodrome Forecast
Issued by NWS

Home | Current Version | Previous Version | Text Only | Print | Product List | Glossary On
Versions: 1 2 3 4 5 6 7 8 9 10 11 12
000
FTAK31 PANC 230535
TAFAGK
TAF
PAGK 230535Z 2306/2406 VRB05KT P6SM VCSH FEW050 BKN090
     FM231000 16007KT P6SM -SHRA BKN040 BKN060
     FM240000 16012KT P6SM VCSH SCT040 BKN080=

USA.gov is the U.S. government's official web portal to all federal, state and local government web resources and services.